Time;durP1;ratioP1;P1;durP2;ratioP2;P2;SDS_P1;SDS_P2;PMS_P1;PMS_P2;Temp;Humidity;BMP_temperature;BMP_pressure;BME280_temperature;BME280_humidity;BME280_pressure;Samples;Min_cycle;Max_cycle;Signal;HPM_P1;HPM_P2
2024/02/18 00:00:01;;;;;;;8.53;7.60;;;;;;;7.94;100.00;153399.09;5116085;27;20450;-88
2024/02/18 00:02:28;;;;;;;11.10;7.80;;;;;;;7.94;100.00;153399.09;5107365;28;20452;-88
2024/02/18 00:04:53;;;;;;;10.67;7.63;;;;;;;7.92;100.00;153393.88;5113231;27;20454;-88
2024/02/18 00:07:20;;;;;;;9.03;6.17;;;;;;;7.95;100.00;153401.63;5133229;27;20459;-88
2024/02/18 00:09:49;;;;;;;9.13;7.60;;;;;;;8.02;100.00;153418.44;5112208;28;20650;-88
2024/02/18 00:12:15;;;;;;;11.93;8.10;;;;;;;8.03;100.00;153422.31;5096098;28;20440;-88
2024/02/18 00:14:42;;;;;;;9.17;6.80;;;;;;;7.99;100.00;153413.25;5095876;28;20448;-89
2024/02/18 00:17:08;;;;;;;9.97;6.97;;;;;;;7.98;100.00;153410.69;5095826;28;20444;-88
2024/02/18 00:19:35;;;;;;;10.30;7.87;;;;;;;7.96;100.00;153404.22;5131305;27;20424;-88
2024/02/18 00:22:01;;;;;;;7.53;6.70;;;;;;;7.97;100.00;153406.78;5118885;27;20427;-89
2024/02/18 00:24:28;;;;;;;8.40;6.27;;;;;;;7.96;100.00;153405.53;5136140;27;20804;-88
2024/02/18 00:26:56;;;;;;;8.40;6.83;;;;;;;8.02;100.00;153419.75;5125605;27;20463;-88
2024/02/18 00:29:22;;;;;;;10.77;7.37;;;;;;;8.01;100.00;153417.16;5110726;28;20432;-88
2024/02/18 00:31:49;;;;;;;8.90;7.43;;;;;;;8.05;100.00;153427.47;5115212;27;20493;-88
2024/02/18 00:34:20;;;;;;;9.90;7.77;;;;;;;8.12;100.00;153445.59;5094888;28;20966;-88
2024/02/18 00:36:47;;;;;;;11.77;8.33;;;;;;;8.15;100.00;153452.03;5106542;27;20459;-88
2024/02/18 00:39:14;;;;;;;11.00;8.87;;;;;;;8.22;100.00;153471.44;5115269;27;20451;-88
2024/02/18 00:41:41;;;;;;;9.83;8.00;;;;;;;8.26;100.00;153481.75;5114728;27;20449;-88
2024/02/18 00:44:09;;;;;;;9.53;7.63;;;;;;;8.29;100.00;153489.56;5115076;27;20900;-88
2024/02/18 00:46:36;;;;;;;9.30;7.80;;;;;;;8.23;100.00;153472.72;5114519;27;20472;-88
2024/02/18 00:49:02;;;;;;;9.87;8.17;;;;;;;8.19;100.00;153462.38;5114793;27;20473;-89
2024/02/18 00:51:29;;;;;;;14.77;9.07;;;;;;;8.14;100.00;153449.44;5132216;27;20444;-88
2024/02/18 00:53:55;;;;;;;13.20;10.17;;;;;;;8.10;100.00;153440.38;5112418;27;20446;-88
2024/02/18 00:56:23;;;;;;;10.47;8.90;;;;;;;8.14;100.00;153450.75;5128039;27;20477;-88
2024/02/18 00:58:50;;;;;;;10.57;8.67;;;;;;;8.11;100.00;153441.69;5119090;27;20984;-89
2024/02/18 01:01:18;;;;;;;12.60;10.17;;;;;;;8.11;100.00;153443.00;5114647;27;20423;-88
2024/02/18 01:03:45;;;;;;;10.20;9.20;;;;;;;8.12;100.00;153445.59;5114752;27;20928;-88
2024/02/18 01:06:11;;;;;;;9.57;8.57;;;;;;;8.10;100.00;153439.13;5114758;27;20500;-88
2024/02/18 01:08:38;;;;;;;12.33;8.67;;;;;;;8.16;100.00;153455.91;5115184;27;20471;-88
2024/02/18 01:11:05;;;;;;;14.73;9.37;;;;;;;8.18;100.00;153461.06;5114304;27;20439;-88
2024/02/18 01:13:31;;;;;;;13.40;9.57;;;;;;;8.14;100.00;153449.44;5115035;27;20477;-88
2024/02/18 01:15:58;;;;;;;11.83;9.73;;;;;;;8.06;100.00;153430.06;5114708;27;20459;-88
2024/02/18 01:18:26;;;;;;;12.63;9.40;;;;;;;8.05;100.00;153427.47;5114594;27;20444;-88
2024/02/18 01:20:53;;;;;;;12.00;9.10;;;;;;;8.02;100.00;153418.44;5117605;27;20439;-88
2024/02/18 01:23:19;;;;;;;12.40;9.70;;;;;;;8.03;100.00;153421.00;5115519;28;20436;-87
2024/02/18 01:25:46;;;;;;;12.00;10.10;;;;;;;8.04;100.00;153424.91;5098722;28;20448;-87
2024/02/18 01:28:13;;;;;;;12.90;11.10;;;;;;;8.12;100.00;153445.59;5106357;27;21053;-88
2024/02/18 01:30:39;;;;;;;20.40;13.00;;;;;;;8.13;100.00;153446.88;5114358;27;20503;-88
2024/02/18 01:33:06;;;;;;;13.20;11.80;;;;;;;8.08;100.00;153435.22;5114058;27;20427;-87
2024/02/18 01:35:34;;;;;;;13.40;11.73;;;;;;;8.09;100.00;153437.81;5114050;27;20468;-88
2024/02/18 01:38:00;;;;;;;13.83;11.57;;;;;;;8.10;100.00;153439.13;5112652;27;20443;-87
2024/02/18 01:40:27;;;;;;;13.27;11.80;;;;;;;8.10;100.00;153440.38;5093309;28;20893;-89
2024/02/18 01:42:53;;;;;;;19.53;13.10;;;;;;;8.07;100.00;153432.66;5093285;28;20970;-87
2024/02/18 01:45:20;;;;;;;15.93;12.47;;;;;;;8.06;100.00;153430.06;5110229;28;20498;-88
2024/02/18 01:47:47;;;;;;;15.10;11.77;;;;;;;8.01;100.00;153415.84;5116093;27;20874;-88
2024/02/18 01:50:14;;;;;;;16.30;14.00;;;;;;;8.02;100.00;153419.75;5113789;27;20508;-89
2024/02/18 01:52:43;;;;;;;14.63;12.83;;;;;;;8.05;100.00;153427.47;5113707;27;20427;-88
2024/02/18 01:55:10;;;;;;;14.23;12.37;;;;;;;8.01;100.00;153417.16;5113807;27;20443;-88
2024/02/18 01:57:38;;;;;;;15.13;10.70;;;;;;;7.98;100.00;153409.41;5093349;28;20440;-89
2024/02/18 02:00:06;;;;;;;13.57;12.13;;;;;;;8.00;100.00;153414.53;5093250;28;20493;-90
2024/02/18 02:02:38;;;;;;;13.17;11.87;;;;;;;8.00;100.00;153414.53;5118852;27;20443;-88
2024/02/18 02:05:06;;;;;;;15.10;11.87;;;;;;;7.97;100.00;153406.78;5113385;27;20538;-89
2024/02/18 02:07:32;;;;;;;15.30;12.87;;;;;;;7.94;100.00;153399.09;5113780;27;20567;-89
2024/02/18 02:10:01;;;;;;;13.70;11.20;;;;;;;7.93;100.00;153396.47;5116365;27;20439;-90
2024/02/18 02:12:27;;;;;;;13.57;11.23;;;;;;;7.90;100.00;153390.03;5113352;27;20447;-89
2024/02/18 02:14:54;;;;;;;15.80;11.40;;;;;;;7.88;100.00;153383.56;5113151;27;20451;-89
2024/02/18 02:17:20;;;;;;;17.57;12.50;;;;;;;7.86;100.00;153378.41;5113153;27;20512;-88
2024/02/18 02:19:47;;;;;;;12.63;11.03;;;;;;;7.85;100.00;153375.81;5112965;27;20886;-88
2024/02/18 02:22:14;;;;;;;14.43;11.90;;;;;;;7.85;100.00;153375.81;5113103;27;21200;-88
2024/02/18 02:24:40;;;;;;;13.90;11.10;;;;;;;7.85;100.00;153377.09;5113211;27;20439;-87
2024/02/18 02:27:09;;;;;;;11.13;10.00;;;;;;;7.81;100.00;153365.50;5106934;28;20521;-88
2024/02/18 02:29:38;;;;;;;14.57;11.13;;;;;;;7.77;100.00;153356.44;5112177;27;20443;-89
2024/02/18 02:32:05;;;;;;;13.70;12.30;;;;;;;7.75;100.00;153349.97;5111743;27;20432;-88
2024/02/18 02:34:32;;;;;;;16.70;10.93;;;;;;;7.69;100.00;153335.75;5092385;28;20432;-88
2024/02/18 02:36:58;;;;;;;12.13;10.50;;;;;;;7.67;100.00;153329.31;5112336;27;20451;-88
2024/02/18 02:39:25;;;;;;;13.90;11.37;;;;;;;7.64;100.00;153321.56;5112814;27;20443;-87
2024/02/18 02:41:52;;;;;;;13.47;11.87;;;;;;;7.60;100.00;153312.50;5125340;27;20436;-88
2024/02/18 02:44:18;;;;;;;14.63;11.93;;;;;;;7.60;100.00;153311.25;5111638;27;20535;-88
2024/02/18 02:46:47;;;;;;;13.57;11.93;;;;;;;7.60;100.00;153311.25;5112331;27;20428;-88
2024/02/18 02:49:13;;;;;;;12.47;10.93;;;;;;;7.54;100.00;153295.72;5112383;27;20451;-88
2024/02/18 02:51:42;;;;;;;14.80;12.30;;;;;;;7.54;100.00;153295.72;5129701;28;20518;-89
2024/02/18 02:54:09;;;;;;;14.37;11.20;;;;;;;7.50;100.00;153285.38;5111709;28;20858;-88
2024/02/18 02:56:35;;;;;;;14.23;11.80;;;;;;;7.44;100.00;153269.91;5112591;28;20427;-88
2024/02/18 02:59:02;;;;;;;13.47;11.80;;;;;;;7.40;100.00;153259.53;5112354;28;20443;-88
2024/02/18 03:01:29;;;;;;;15.97;12.23;;;;;;;7.33;100.00;153244.03;5110717;28;20555;-87
2024/02/18 03:03:57;;;;;;;15.00;10.73;;;;;;;7.33;100.00;153244.03;5111541;28;20871;-88
2024/02/18 03:06:23;;;;;;;14.77;11.80;;;;;;;7.36;100.00;153250.50;5112443;28;20474;-88
2024/02/18 03:08:50;;;;;;;12.70;10.83;;;;;;;7.31;100.00;153238.88;5112597;28;20486;-88
2024/02/18 03:11:17;;;;;;;14.63;12.03;;;;;;;7.29;100.00;153233.72;5129460;27;20941;-88
2024/02/18 03:13:43;;;;;;;15.30;13.20;;;;;;;7.33;100.00;153244.03;5112221;28;20451;-88
2024/02/18 03:16:10;;;;;;;15.87;11.93;;;;;;;7.35;100.00;153247.94;5106752;28;20856;-88
2024/02/18 03:18:37;;;;;;;13.80;11.97;;;;;;;7.26;100.00;153224.66;5091518;28;20547;-88
2024/02/18 03:21:05;;;;;;;17.63;11.27;;;;;;;7.25;100.00;153223.38;5105150;28;20458;-88
2024/02/18 03:23:32;;;;;;;17.97;13.73;;;;;;;7.34;100.00;153245.34;5112505;28;20462;-88
2024/02/18 03:25:59;;;;;;;15.80;13.03;;;;;;;7.42;100.00;153266.00;5103697;28;20547;-87
2024/02/18 03:28:26;;;;;;;16.80;12.83;;;;;;;7.50;100.00;153286.66;5100797;28;20496;-88
2024/02/18 03:30:52;;;;;;;15.70;11.90;;;;;;;7.50;100.00;153286.66;5108227;28;20442;-88
2024/02/18 03:33:19;;;;;;;13.23;11.50;;;;;;;7.43;100.00;153267.31;5129304;28;20787;-88
2024/02/18 03:35:46;;;;;;;12.87;10.70;;;;;;;7.31;100.00;153238.88;5108759;28;20459;-88
2024/02/18 03:38:14;;;;;;;15.20;12.07;;;;;;;7.30;100.00;153236.34;5092428;28;20421;-88
2024/02/18 03:40:41;;;;;;;16.00;11.50;;;;;;;7.24;100.00;153220.81;5098764;28;20524;-89
2024/02/18 03:43:08;;;;;;;15.70;12.57;;;;;;;7.21;100.00;153213.06;5092117;28;20421;-89
2024/02/18 03:45:35;;;;;;;15.30;13.70;;;;;;;7.12;100.00;153189.81;5091906;28;20923;-89
2024/02/18 03:48:02;;;;;;;17.00;13.07;;;;;;;7.13;100.00;153192.41;5091979;28;20468;-89
2024/02/18 03:50:28;;;;;;;14.07;12.20;;;;;;;7.10;100.00;153184.66;5125184;27;20454;-89
2024/02/18 03:52:55;;;;;;;14.37;11.97;;;;;;;7.07;100.00;153176.91;5123284;28;20497;-89
2024/02/18 03:55:23;;;;;;;14.03;11.13;;;;;;;6.99;100.00;153155.00;5129110;27;20467;-89
2024/02/18 03:57:50;;;;;;;17.20;12.10;;;;;;;6.94;100.00;153143.34;5128770;27;20546;-89
2024/02/18 04:00:17;;;;;;;17.30;14.23;;;;;;;6.90;100.00;153131.72;5098378;28;20460;-87
2024/02/18 04:02:43;;;;;;;15.90;13.63;;;;;;;6.84;100.00;153117.53;5130896;28;20458;-90
2024/02/18 04:05:11;;;;;;;15.40;13.80;;;;;;;6.77;100.00;153098.19;5112596;27;20463;-89
2024/02/18 04:07:38;;;;;;;16.20;13.47;;;;;;;6.70;100.00;153082.66;5134597;27;20475;-89
2024/02/18 04:10:06;;;;;;;15.47;13.70;;;;;;;6.66;100.00;153071.06;5133119;27;20502;-89
2024/02/18 04:12:34;;;;;;;19.40;15.17;;;;;;;6.58;100.00;153050.41;5114211;27;20817;-89
2024/02/18 04:15:01;;;;;;;15.90;14.20;;;;;;;6.56;100.00;153046.56;5132553;27;20844;-89
2024/02/18 04:17:27;;;;;;;19.20;14.70;;;;;;;6.51;100.00;153032.38;5132942;27;20553;-89
2024/02/18 04:19:54;;;;;;;17.13;14.70;;;;;;;6.47;100.00;153022.00;5132894;27;21010;-90
2024/02/18 04:22:21;;;;;;;21.80;14.73;;;;;;;6.43;100.00;153013.03;5132117;27;20458;-90
2024/02/18 04:24:47;;;;;;;20.17;17.10;;;;;;;6.45;100.00;153016.88;5146171;27;20789;-90
2024/02/18 04:27:14;;;;;;;15.87;14.17;;;;;;;6.44;100.00;153014.28;5154622;27;20477;-89
2024/02/18 04:29:42;;;;;;;18.97;16.27;;;;;;;6.48;100.00;153024.63;5150707;27;20989;-89
2024/02/18 04:32:08;;;;;;;18.10;15.90;;;;;;;6.43;100.00;153011.72;5133240;27;20492;-89
2024/02/18 04:34:35;;;;;;;16.57;14.50;;;;;;;6.37;100.00;152996.22;5133936;27;20916;-89
2024/02/18 04:37:01;;;;;;;17.93;14.77;;;;;;;6.30;100.00;152979.41;5134581;27;20435;-89
2024/02/18 04:39:28;;;;;;;16.57;14.83;;;;;;;6.26;100.00;152967.81;5134732;27;20441;-88
2024/02/18 04:41:54;;;;;;;17.53;14.47;;;;;;;6.21;100.00;152954.94;5148669;27;20455;-90
2024/02/18 04:44:21;;;;;;;20.23;16.40;;;;;;;6.16;100.00;152942.03;5154264;27;20494;-89
2024/02/18 04:46:49;;;;;;;18.00;14.90;;;;;;;6.14;100.00;152939.44;5142796;27;20554;-88
2024/02/18 04:49:16;;;;;;;17.60;13.70;;;;;;;6.09;100.00;152926.53;5132736;27;20561;-87
2024/02/18 04:51:42;;;;;;;16.67;14.80;;;;;;;6.02;100.00;152908.50;5114901;27;20431;-88
2024/02/18 04:54:09;;;;;;;18.40;15.20;;;;;;;5.96;100.00;152893.00;5133556;27;20439;-87
2024/02/18 04:56:35;;;;;;;17.50;15.10;;;;;;;5.92;100.00;152881.41;5131413;27;20535;-88
2024/02/18 04:59:02;;;;;;;19.43;15.40;;;;;;;5.90;100.00;152876.25;5132870;27;20957;-86
2024/02/18 05:01:29;;;;;;;20.23;16.37;;;;;;;5.93;100.00;152884.00;5122567;27;20547;-87
2024/02/18 05:03:56;;;;;;;19.77;14.83;;;;;;;5.86;100.00;152865.91;5112508;28;20440;-88
2024/02/18 05:06:23;;;;;;;18.07;16.10;;;;;;;5.86;100.00;152867.22;5122343;27;20447;-87
2024/02/18 05:08:50;;;;;;;20.80;15.90;;;;;;;5.88;100.00;152871.06;5131046;27;20536;-87
2024/02/18 05:11:16;;;;;;;20.50;16.63;;;;;;;5.88;100.00;152872.34;5120800;27;20523;-87
2024/02/18 05:13:43;;;;;;;20.30;16.27;;;;;;;5.84;100.00;152860.72;5126619;27;20532;-87
2024/02/18 05:16:09;;;;;;;19.77;15.50;;;;;;;5.81;100.00;152854.28;5110677;27;20452;-88
2024/02/18 05:18:36;;;;;;;19.60;15.60;;;;;;;5.82;100.00;152856.88;5124426;27;20993;-88
2024/02/18 05:21:05;;;;;;;20.97;16.70;;;;;;;5.82;100.00;152856.88;5133033;27;20435;-88
2024/02/18 05:23:32;;;;;;;23.03;16.87;;;;;;;5.86;100.00;152865.91;5132872;27;20433;-88
2024/02/18 05:25:58;;;;;;;23.53;16.40;;;;;;;5.86;100.00;152867.22;5131296;27;20469;-87
2024/02/18 05:28:25;;;;;;;22.73;16.53;;;;;;;5.84;100.00;152862.00;5126706;27;20970;-87
2024/02/18 05:30:51;;;;;;;21.53;15.97;;;;;;;5.87;100.00;152869.81;5126978;27;20450;-87
2024/02/18 05:33:18;;;;;;;20.80;18.33;;;;;;;5.94;100.00;152887.84;5132585;27;21008;-87
2024/02/18 05:35:45;;;;;;;25.07;18.80;;;;;;;5.97;100.00;152895.59;5131107;27;20493;-87
2024/02/18 05:38:12;;;;;;;20.93;17.17;;;;;;;5.93;100.00;152885.25;5132484;27;20432;-88
2024/02/18 05:40:39;;;;;;;20.90;17.60;;;;;;;5.91;100.00;152880.09;5113351;27;20500;-88
2024/02/18 05:43:06;;;;;;;22.00;17.43;;;;;;;5.90;100.00;152876.25;5128488;27;20454;-88
2024/02/18 05:45:32;;;;;;;21.50;16.47;;;;;;;5.91;100.00;152880.09;5131279;27;20971;-87
2024/02/18 05:47:59;;;;;;;27.20;18.83;;;;;;;5.91;100.00;152878.81;5130391;27;20439;-87
2024/02/18 05:50:26;;;;;;;21.50;16.67;;;;;;;5.88;100.00;152872.34;5129681;27;20448;-88
2024/02/18 05:52:58;;;;;;;19.60;16.60;;;;;;;5.91;100.00;152878.81;5139380;27;20466;-87
2024/02/18 05:55:26;;;;;;;20.73;17.23;;;;;;;5.84;100.00;152860.72;5129841;27;20443;-88
2024/02/18 05:57:52;;;;;;;21.67;17.47;;;;;;;5.79;100.00;152849.13;5130071;27;20439;-88
2024/02/18 06:00:19;;;;;;;19.73;16.60;;;;;;;5.78;100.00;152845.22;5127672;27;20484;-88
2024/02/18 06:02:46;;;;;;;19.73;15.97;;;;;;;5.75;100.00;152838.78;5123997;27;20459;-88
2024/02/18 06:05:17;;;;;;;21.47;15.93;;;;;;;5.70;100.00;152825.88;5131806;27;20976;-88
2024/02/18 06:07:44;;;;;;;19.60;17.50;;;;;;;5.71;100.00;152828.47;5129427;27;20461;-88
2024/02/18 06:10:11;;;;;;;22.97;17.87;;;;;;;5.71;100.00;152828.47;5122232;27;20487;-88
2024/02/18 06:12:40;;;;;;;20.73;16.80;;;;;;;5.72;100.00;152829.78;5126329;27;20479;-87
2024/02/18 06:15:07;;;;;;;19.40;17.17;;;;;;;5.71;100.00;152827.19;5135002;27;20455;-87
2024/02/18 06:17:34;;;;;;;18.97;17.00;;;;;;;5.72;100.00;152829.78;5142109;27;20453;-87
2024/02/18 06:20:00;;;;;;;20.60;17.43;;;;;;;5.72;100.00;152831.03;5133659;27;20567;-87
2024/02/18 06:22:27;;;;;;;20.40;16.20;;;;;;;5.73;100.00;152832.34;5113595;27;20791;-87
2024/02/18 06:25:02;;;;;;;19.97;15.70;;;;;;;5.70;100.00;152825.88;5131196;27;20503;-88
2024/02/18 06:27:31;;;;;;;22.10;17.77;;;;;;;5.66;100.00;152814.28;5124871;27;20819;-88
2024/02/18 06:29:59;;;;;;;18.00;14.87;;;;;;;5.62;100.00;152803.97;5144421;27;20531;-88
2024/02/18 06:32:26;;;;;;;17.90;15.80;;;;;;;5.59;100.00;152797.50;5134865;27;20442;-87
2024/02/18 06:34:52;;;;;;;19.97;15.90;;;;;;;5.59;100.00;152797.50;5129299;27;20462;-88
2024/02/18 06:37:19;;;;;;;18.67;15.37;;;;;;;5.60;100.00;152798.81;5122572;27;20922;-88
2024/02/18 06:39:46;;;;;;;20.63;16.63;;;;;;;5.60;100.00;152800.09;5138652;27;20479;-87
2024/02/18 06:42:12;;;;;;;19.27;16.97;;;;;;;5.63;100.00;152807.84;5135857;27;20450;-88
2024/02/18 06:44:39;;;;;;;19.70;16.17;;;;;;;5.67;100.00;152818.16;5129843;27;20568;-88
2024/02/18 06:47:08;;;;;;;21.00;17.23;;;;;;;5.74;100.00;152834.94;5127845;27;20458;-87
2024/02/18 06:49:35;;;;;;;19.47;15.97;;;;;;;5.79;100.00;152849.13;5133283;27;20811;-88
2024/02/18 06:52:01;;;;;;;19.27;16.37;;;;;;;5.85;100.00;152863.38;5138094;27;20450;-88
2024/02/18 06:54:28;;;;;;;20.47;17.00;;;;;;;5.89;100.00;152874.97;5128911;28;20455;-88
2024/02/18 06:56:54;;;;;;;17.90;16.00;;;;;;;5.97;100.00;152895.59;5135527;27;20463;-88
2024/02/18 06:59:21;;;;;;;23.30;17.27;;;;;;;6.02;100.00;152908.50;5131274;27;20458;-88
2024/02/18 07:01:48;;;;;;;20.03;17.00;;;;;;;6.06;100.00;152918.78;5111842;28;20471;-88
2024/02/18 07:04:16;;;;;;;19.57;15.80;;;;;;;6.09;100.00;152925.22;5130726;27;20834;-88
2024/02/18 07:06:42;;;;;;;18.00;15.50;;;;;;;6.11;100.00;152931.72;5131589;27;20446;-88
2024/02/18 07:09:09;;;;;;;17.30;14.33;;;;;;;6.16;100.00;152942.03;5139574;27;20577;-87
2024/02/18 07:11:35;;;;;;;19.00;15.47;;;;;;;6.18;100.00;152947.19;5137468;27;20450;-87
2024/02/18 07:14:02;;;;;;;19.07;15.23;;;;;;;6.21;100.00;152954.94;5132049;27;20449;-87
2024/02/18 07:16:28;;;;;;;18.07;15.60;;;;;;;6.24;100.00;152962.66;5137590;27;20512;-87
2024/02/18 07:18:55;;;;;;;16.40;13.23;;;;;;;6.25;100.00;152965.28;5140110;27;20542;-88
2024/02/18 07:21:23;;;;;;;19.17;15.60;;;;;;;6.28;100.00;152972.97;5130443;28;20483;-87
2024/02/18 07:23:50;;;;;;;17.27;13.67;;;;;;;6.30;100.00;152978.16;5145771;27;20559;-87
2024/02/18 07:26:17;;;;;;;18.10;14.57;;;;;;;6.32;100.00;152984.63;5137312;27;20449;-88
2024/02/18 07:28:43;;;;;;;17.20;14.13;;;;;;;6.30;100.00;152978.16;5142843;27;20915;-87
2024/02/18 07:31:10;;;;;;;17.33;14.60;;;;;;;6.37;100.00;152997.53;5139833;27;20809;-87
2024/02/18 07:33:36;;;;;;;15.30;13.67;;;;;;;6.68;100.00;153076.22;5134848;27;20511;-87
2024/02/18 07:36:03;;;;;;;16.13;14.40;;;;;;;7.00;100.00;153157.53;5128948;27;20457;-87
2024/02/18 07:38:31;;;;;;;19.90;15.40;;;;;;;7.47;100.00;153277.63;5128684;27;20447;-87
2024/02/18 07:41:04;;;;;;;20.60;16.07;;;;;;;7.98;100.00;153409.41;5133355;27;20455;-87
2024/02/18 07:43:33;;;;;;;18.37;15.63;;;;;;;8.31;100.00;153494.72;5139653;27;20473;-87
2024/02/18 07:46:00;;;;;;;17.60;14.97;;;;;;;8.42;100.00;153523.16;5140634;27;20456;-87
2024/02/18 07:48:35;;;;;;;17.07;15.37;;;;;;;8.74;100.00;153603.28;5140897;27;20474;-88
2024/02/18 07:51:01;;;;;;;17.90;14.60;;;;;;;9.19;100.00;153719.69;5138457;27;20465;-88
2024/02/18 07:53:29;;;;;;;17.30;13.10;;;;;;;9.67;100.00;153842.56;5127811;27;20846;-88
2024/02/18 07:55:57;;;;;;;15.17;13.10;;;;;;;10.21;100.00;153982.41;5137291;27;20466;-76
2024/02/18 07:58:23;;;;;;;15.37;13.27;;;;;;;10.71;100.00;154110.56;5138368;27;20525;-77
2024/02/18 08:00:50;;;;;;;13.40;11.70;;;;;;;11.13;97.66;154218.06;5138737;27;20503;-76
2024/02/18 08:03:19;;;;;;;22.20;13.77;;;;;;;11.35;94.29;154273.78;5135102;27;20863;-77
2024/02/18 08:05:51;;;;;;;13.37;11.73;;;;;;;11.47;92.90;154304.84;5131658;27;20610;-77
2024/02/18 08:08:20;;;;;;;14.70;11.27;;;;;;;11.67;90.83;154356.72;5138766;27;20787;-78
2024/02/18 08:10:47;;;;;;;15.73;12.27;;;;;;;11.61;89.99;154341.16;5135113;27;20482;-77
2024/02/18 08:13:15;;;;;;;12.17;10.87;;;;;;;11.54;88.86;154323.03;5133962;27;20451;-77
2024/02/18 08:15:40;;;;;;;12.73;11.37;;;;;;;11.17;88.44;154227.16;5134416;27;20526;-78
2024/02/18 08:18:07;;;;;;;13.10;10.40;;;;;;;10.70;89.94;154106.66;5127023;27;20882;-77
2024/02/18 08:20:37;;;;;;;12.57;11.17;;;;;;;10.32;92.18;154009.59;5150523;27;20215;-77
2024/02/18 08:23:05;;;;;;;13.27;11.50;;;;;;;10.04;94.44;153938.34;5137697;27;20468;-77
2024/02/18 08:25:31;;;;;;;13.47;11.20;;;;;;;9.85;96.48;153887.88;5134831;27;20451;-77
2024/02/18 08:27:58;;;;;;;14.50;10.90;;;;;;;9.72;97.64;153856.81;5134313;27;20474;-77
2024/02/18 08:30:26;;;;;;;12.57;10.80;;;;;;;9.59;98.63;153821.88;5132513;27;20482;-77
2024/02/18 08:32:52;;;;;;;13.07;9.77;;;;;;;9.53;99.43;153806.38;5136228;27;20455;-77
2024/02/18 08:35:20;;;;;;;12.90;11.50;;;;;;;9.48;100.00;153793.41;5138683;27;20527;-77
2024/02/18 08:37:48;;;;;;;15.97;11.33;;;;;;;9.46;100.00;153788.22;5115566;27;20961;-78
2024/02/18 08:40:15;;;;;;;13.33;11.47;;;;;;;9.44;100.00;153784.38;5134911;27;25483;-78
2024/02/18 08:42:42;;;;;;;12.33;10.90;;;;;;;9.44;100.00;153783.06;5129296;27;20845;-78
2024/02/18 08:45:09;;;;;;;14.23;10.93;;;;;;;9.45;100.00;153785.69;5132590;27;20845;-78
2024/02/18 08:47:37;;;;;;;13.13;11.77;;;;;;;9.46;100.00;153789.53;5121762;27;20454;-78
2024/02/18 08:50:04;;;;;;;13.20;11.80;;;;;;;9.49;100.00;153796.00;5149785;27;20467;-78
2024/02/18 08:52:30;;;;;;;13.33;11.03;;;;;;;9.52;100.00;153805.06;5136651;27;20452;-78
2024/02/18 08:54:57;;;;;;;15.33;11.93;;;;;;;9.54;100.00;153808.94;5130701;27;20486;-78
2024/02/18 08:57:24;;;;;;;14.97;12.00;;;;;;;9.55;100.00;153812.84;5136057;27;20474;-78
2024/02/18 08:59:51;;;;;;;14.47;12.57;;;;;;;9.59;100.00;153823.16;5135037;27;21246;-77
2024/02/18 09:02:18;;;;;;;12.20;11.00;;;;;;;9.62;100.00;153829.63;5128350;27;20466;-78
2024/02/18 09:04:46;;;;;;;12.33;11.03;;;;;;;9.66;100.00;153841.25;5117246;27;20467;-78
2024/02/18 09:07:13;;;;;;;13.53;11.63;;;;;;;9.73;100.00;153859.41;5132695;27;20596;-78
2024/02/18 09:09:39;;;;;;;13.57;12.07;;;;;;;9.76;100.00;153867.19;5132317;27;20479;-78
2024/02/18 09:12:06;;;;;;;13.20;11.87;;;;;;;9.84;100.00;153885.28;5136890;27;20496;-78
2024/02/18 09:14:33;;;;;;;12.93;10.83;;;;;;;9.91;100.00;153903.38;5136486;27;20992;-78
2024/02/18 09:17:00;;;;;;;14.47;11.40;;;;;;;9.96;100.00;153916.31;5108510;27;20551;-78
2024/02/18 09:19:26;;;;;;;13.70;11.63;;;;;;;10.04;100.00;153937.03;5127555;27;20477;-78
2024/02/18 09:21:54;;;;;;;13.70;11.67;;;;;;;10.11;100.00;153955.19;5130979;27;20455;-77
2024/02/18 09:24:21;;;;;;;13.23;11.83;;;;;;;10.11;100.00;153955.19;5118646;27;20460;-77
2024/02/18 09:26:47;;;;;;;12.83;11.53;;;;;;;10.13;100.00;153960.41;5116844;27;20442;-77
2024/02/18 09:29:14;;;;;;;12.87;10.77;;;;;;;10.16;100.00;153968.16;5127987;27;20478;-77
2024/02/18 09:31:41;;;;;;;12.60;10.40;;;;;;;10.22;100.00;153983.66;5132386;27;20459;-77
2024/02/18 09:34:07;;;;;;;11.43;10.27;;;;;;;10.30;100.00;154005.69;5134023;27;20485;-77
2024/02/18 09:36:34;;;;;;;19.23;11.33;;;;;;;10.37;100.00;154022.53;5152881;27;20459;-77
2024/02/18 09:39:02;;;;;;;13.23;11.70;;;;;;;10.39;100.00;154027.69;5137018;27;20546;-77
2024/02/18 09:41:29;;;;;;;11.87;10.47;;;;;;;10.45;100.00;154043.25;5133540;27;20453;-78
2024/02/18 09:44:01;;;;;;;13.30;10.60;;;;;;;10.50;98.87;154056.19;5132007;27;20458;-78
2024/02/18 09:46:28;;;;;;;11.97;9.40;;;;;;;10.59;96.55;154079.47;5128909;27;20460;-78
2024/02/18 09:48:55;;;;;;;11.37;9.43;;;;;;;10.70;94.67;154107.97;5149728;27;20814;-78
2024/02/18 09:51:56;;;;;;;11.50;10.40;;;;;;;10.79;91.90;154130.00;5132143;27;20474;-78
2024/02/18 09:54:47;;;;;;;10.50;9.00;;;;;;;10.87;91.00;154152.03;5086121;27;20821;-78
2024/02/18 09:57:15;;;;;;;10.17;9.07;;;;;;;10.92;90.78;154163.66;5133182;27;20467;-78
2024/02/18 09:59:42;;;;;;;11.33;9.67;;;;;;;10.99;91.01;154181.78;5116004;27;20440;-78
2024/02/18 10:02:12;;;;;;;10.53;8.47;;;;;;;11.02;89.74;154189.56;5130862;27;20570;-78
2024/02/18 10:04:38;;;;;;;10.50;9.43;;;;;;;11.09;90.52;154206.41;5116499;27;21245;-78
2024/02/18 10:07:05;;;;;;;10.50;9.30;;;;;;;11.14;90.36;154219.38;5132220;27;20523;-78
2024/02/18 10:09:32;;;;;;;13.33;10.50;;;;;;;11.21;90.05;154237.47;5129772;27;20463;-78
2024/02/18 10:12:00;;;;;;;10.67;9.57;;;;;;;11.25;88.15;154249.13;5132502;27;21181;-78
2024/02/18 10:14:26;;;;;;;13.50;9.10;;;;;;;11.24;89.00;154245.25;5135640;27;20443;-78
2024/02/18 10:16:57;;;;;;;10.90;9.27;;;;;;;11.27;91.10;154253.03;5136425;27;20506;-78
2024/02/18 10:19:24;;;;;;;9.40;8.10;;;;;;;11.27;91.09;154253.03;5133135;27;20884;-78
2024/02/18 10:21:51;;;;;;;9.70;8.17;;;;;;;11.26;91.94;154250.44;5136288;27;20601;-78
2024/02/18 10:24:19;;;;;;;9.97;8.43;;;;;;;11.25;92.65;154247.88;5129723;27;20455;-78
2024/02/18 10:26:48;;;;;;;7.70;6.90;;;;;;;11.24;93.13;154245.25;5133285;27;20613;-77
2024/02/18 10:29:16;;;;;;;8.43;7.53;;;;;;;11.25;92.52;154247.88;5142493;27;20446;-77
2024/02/18 10:31:43;;;;;;;7.90;7.00;;;;;;;11.26;90.00;154250.44;5135859;27;20455;-77
2024/02/18 10:34:10;;;;;;;8.60;7.70;;;;;;;11.33;90.18;154268.59;5134888;27;20817;-77
2024/02/18 10:36:37;;;;;;;10.73;8.10;;;;;;;11.39;90.27;154284.13;5133779;27;20519;-77
2024/02/18 10:39:10;;;;;;;9.17;7.57;;;;;;;11.43;89.88;154295.81;5132437;27;20803;-88
2024/02/18 10:41:41;;;;;;;8.13;7.33;;;;;;;11.51;86.85;154315.25;5142368;27;20486;-89
2024/02/18 10:44:11;;;;;;;9.30;8.40;;;;;;;11.59;85.62;154337.28;5125541;27;20432;-88
2024/02/18 10:46:41;;;;;;;10.10;7.80;;;;;;;11.69;84.61;154360.63;5126972;27;20876;-87
2024/02/18 10:49:14;;;;;;;7.03;6.23;;;;;;;11.76;86.89;154380.06;5129462;27;20542;-88
2024/02/18 10:51:42;;;;;;;8.43;7.20;;;;;;;11.76;87.79;154380.06;5133584;27;20571;-88
2024/02/18 10:54:14;;;;;;;10.50;7.87;;;;;;;11.78;83.82;154385.22;5130398;27;20434;-89
2024/02/18 10:56:41;;;;;;;8.70;7.20;;;;;;;11.86;85.27;154404.72;5132604;27;20483;-88
2024/02/18 10:59:14;;;;;;;8.67;6.90;;;;;;;11.85;87.13;154403.41;5133617;27;20454;-89
2024/02/18 11:01:53;;;;;;;8.30;7.50;;;;;;;11.81;89.28;154393.00;5135170;27;20453;-88
2024/02/18 11:04:20;;;;;;;8.43;7.30;;;;;;;11.78;87.07;154385.22;5135550;27;20446;-88
2024/02/18 11:06:47;;;;;;;7.37;5.97;;;;;;;11.84;85.13;154400.78;5140012;27;20458;-88
2024/02/18 11:09:17;;;;;;;7.57;6.50;;;;;;;11.87;84.48;154408.56;5130781;27;20632;-87
2024/02/18 11:11:44;;;;;;;7.33;6.50;;;;;;;11.95;82.63;154429.31;5141597;27;20984;-88